Aviation Digital Data Service (ADDS)

Output produced by METARs form (2258 UTC 21 May 2022)
found at http://www.aviationweather.gov/metar/data/
 
EEEI 212250Z AUTO 06007KT CAVOK 07/M01 Q1010
EEKE 212250Z AUTO 03008KT 9999NDV NSC 08/03 Q1008
EEPU 212250Z AUTO 05009KT 9999 NCD 08/01 Q1008
EETN 212250Z 07010KT CAVOK 07/01 Q1010
TAF EETN 211730Z 2118/2218 06015G25KT CAVOK 
     BECMG 2119/2121 07007KT 
     BECMG 2216/2218 VRB02KT
       
EETU 212250Z AUTO 05009KT 020V080 9999 NCD 09/01 Q1007